Phelps, Wisconsin
Current Conditions -  °F | °C
As of 9:35 PM on Wednesday 22 Oct 2014 (Local Time) from KLNL Reporting Station
Clear Clear  
Wind Chill: 38°   Ceiling: Unl
Heat Index: 42°   Visibility: 10mi
Dew Point: 32°   Wind: 6mph
Humidity: 67%   Direction: 170°S
Pressure: 30.18"   Gusts: NA
Location:  46.06°N, 89.09°W
Report Text: KLNL 230235Z AUTO 17005KT 10SM CLR 06/00 A3018 RMK AO2 T00560000
Loading
Personal Weather Stations






























Interactive Weather Map
Tropical Storm Tracking
New forecast layout! Learn more

10-Day Weather Forecast

Advertisements
Track Severe Weather on mobile